Time;durP1;ratioP1;P1;durP2;ratioP2;P2;SDS_P1;SDS_P2;PMS_P1;PMS_P2;Temp;Humidity;BMP_temperature;BMP_pressure;BME280_temperature;BME280_humidity;BME280_pressure;Samples;Min_cycle;Max_cycle;Signal;HPM_P1;HPM_P2
2022/05/01 00:03:31;;;;;;;9.43;7.80;;;8.40;99.90;;;;;;7315655;32;20250;-60
2022/05/01 00:07:33;;;;;;;11.68;6.87;;;8.50;99.90;;;;;;7306501;32;20594;-59
2022/05/01 00:11:35;;;;;;;8.90;7.50;;;8.40;99.90;;;;;;7310691;32;20480;-59
2022/05/01 00:15:37;;;;;;;10.27;7.30;;;8.30;99.90;;;;;;7317501;32;20195;-59
2022/05/01 00:19:39;;;;;;;8.63;6.60;;;8.30;99.90;;;;;;7318143;32;20240;-59
2022/05/01 00:23:53;;;;;;;12.75;7.43;;;8.30;99.90;;;;;;7317309;32;20669;-59
2022/05/01 00:27:55;;;;;;;11.93;7.40;;;8.30;99.90;;;;;;7315755;32;20119;-59
2022/05/01 00:31:57;;;;;;;12.93;7.22;;;8.40;99.90;;;;;;7317643;32;20548;-59
2022/05/01 00:40:19;;;;;;;13.05;7.55;;;8.30;99.90;;;;;;7317436;32;20221;-59
2022/05/01 00:44:21;;;;;;;9.73;7.82;;;8.30;99.90;;;;;;7321029;32;20100;-59
2022/05/01 00:48:23;;;;;;;9.65;7.80;;;8.30;99.90;;;;;;7318225;32;20518;-59
2022/05/01 00:52:25;;;;;;;12.18;8.18;;;8.30;99.90;;;;;;7316809;32;20134;-59
2022/05/01 00:56:30;;;;;;;11.95;7.72;;;8.30;99.90;;;;;;7309175;32;20104;-59
2022/05/01 01:00:33;;;;;;;10.60;8.23;;;8.30;99.90;;;;;;7318451;32;20686;-59
2022/05/01 01:04:34;;;;;;;11.27;8.85;;;8.20;99.90;;;;;;7309829;32;20219;-58
2022/05/01 01:08:36;;;;;;;12.85;8.60;;;8.20;99.90;;;;;;7320572;32;20231;-59
2022/05/01 01:12:53;;;;;;;12.20;8.30;;;8.20;99.90;;;;;;7314338;32;20201;-59
2022/05/01 01:16:55;;;;;;;12.55;9.25;;;8.20;99.90;;;;;;7318498;32;20107;-59
2022/05/01 01:20:56;;;;;;;13.57;9.30;;;8.10;99.90;;;;;;7316819;32;20126;-59
2022/05/01 01:24:59;;;;;;;12.65;9.43;;;8.10;99.90;;;;;;7316711;32;20115;-59
2022/05/01 01:29:01;;;;;;;12.85;8.80;;;8.10;99.90;;;;;;7316371;32;20206;-59
2022/05/01 01:33:03;;;;;;;16.67;9.05;;;8.10;99.90;;;;;;7315493;32;20746;-59
2022/05/01 01:37:07;;;;;;;14.68;9.75;;;8.10;99.90;;;;;;7307392;32;20122;-59
2022/05/01 01:41:13;;;;;;;12.85;8.80;;;8.10;99.90;;;;;;7314899;32;20209;-59
2022/05/01 01:45:15;;;;;;;11.70;8.55;;;8.10;99.90;;;;;;7318158;32;20527;-59
2022/05/01 01:49:17;;;;;;;13.60;8.70;;;8.00;99.90;;;;;;7316934;32;20496;-59
2022/05/01 01:53:20;;;;;;;11.10;8.60;;;8.00;99.90;;;;;;7313486;32;20564;-59
2022/05/01 01:57:22;;;;;;;11.27;8.07;;;8.00;99.90;;;;;;7318955;32;20111;-59
2022/05/01 02:01:24;;;;;;;10.88;8.18;;;8.00;99.90;;;;;;7318002;32;20103;-59
2022/05/01 02:05:27;;;;;;;10.85;8.05;;;7.90;99.90;;;;;;7314104;32;20195;-59
2022/05/01 02:09:30;;;;;;;13.85;9.10;;;7.90;99.90;;;;;;7316186;32;20251;-59
2022/05/01 02:13:32;;;;;;;14.70;8.98;;;7.90;99.90;;;;;;7314889;32;20194;-59
2022/05/01 02:17:35;;;;;;;12.93;9.02;;;7.70;99.90;;;;;;7318089;32;20191;-59
2022/05/01 02:21:36;;;;;;;12.30;9.05;;;7.70;99.90;;;;;;7316953;32;20100;-59
2022/05/01 02:25:40;;;;;;;12.90;8.65;;;7.60;99.90;;;;;;7310005;32;20440;-59
2022/05/01 02:29:43;;;;;;;14.07;8.73;;;7.50;99.90;;;;;;7310539;32;20527;-59
2022/05/01 02:33:46;;;;;;;11.52;8.15;;;7.30;99.90;;;;;;7313063;32;20443;-59
2022/05/01 02:37:47;;;;;;;13.30;9.65;;;7.20;99.90;;;;;;7318728;32;20118;-59
2022/05/01 02:41:50;;;;;;;17.48;8.75;;;7.10;99.90;;;;;;7318782;32;20266;-59
2022/05/01 02:45:52;;;;;;;11.93;9.07;;;7.00;99.90;;;;;;7317018;32;20103;-59
2022/05/01 02:49:53;;;;;;;15.77;9.70;;;6.90;99.90;;;;;;7317124;32;20108;-59
2022/05/01 02:53:55;;;;;;;14.20;9.15;;;6.80;99.90;;;;;;7319012;32;20119;-59
2022/05/01 02:57:56;;;;;;;13.27;8.80;;;6.70;99.90;;;;;;7317003;32;20107;-59
2022/05/01 03:01:58;;;;;;;13.05;8.27;;;6.60;99.90;;;;;;7313262;32;20150;-59
2022/05/01 03:06:00;;;;;;;12.23;9.35;;;6.50;99.90;;;;;;7322128;32;20531;-59
2022/05/01 03:10:02;;;;;;;12.52;8.80;;;6.40;99.90;;;;;;7316933;32;20146;-59
2022/05/01 03:14:04;;;;;;;13.80;9.13;;;6.20;99.90;;;;;;7319560;32;20511;-59
2022/05/01 03:22:26;;;;;;;14.77;9.32;;;6.00;99.90;;;;;;7315370;32;20108;-59
2022/05/01 03:26:28;;;;;;;12.60;8.82;;;5.90;99.90;;;;;;7323757;32;20370;-59
2022/05/01 03:30:29;;;;;;;11.75;9.73;;;5.80;99.90;;;;;;7320764;32;20658;-59
2022/05/01 03:34:31;;;;;;;13.93;9.68;;;5.70;99.90;;;;;;7315073;32;20213;-59
2022/05/01 03:38:40;;;;;;;14.10;10.15;;;5.60;99.90;;;;;;7321450;32;20496;-59
2022/05/01 03:42:45;;;;;;;14.20;9.18;;;5.60;99.90;;;;;;7318210;32;20434;-59
2022/05/01 03:46:47;;;;;;;13.02;9.55;;;5.60;99.90;;;;;;7316444;32;20230;-59
2022/05/01 03:50:51;;;;;;;12.95;9.65;;;5.50;99.90;;;;;;7314327;32;20125;-59
2022/05/01 03:54:53;;;;;;;13.00;10.48;;;5.50;99.90;;;;;;7320185;32;20107;-59
2022/05/01 03:58:57;;;;;;;14.80;10.45;;;5.40;99.90;;;;;;7318496;32;20118;-59
2022/05/01 04:02:59;;;;;;;13.10;10.48;;;5.30;99.90;;;;;;7319517;32;20350;-59
2022/05/01 04:07:00;;;;;;;17.30;11.38;;;5.30;99.90;;;;;;7318736;32;20107;-59
2022/05/01 04:11:03;;;;;;;16.55;11.18;;;5.30;99.90;;;;;;7311400;32;20714;-59
2022/05/01 04:15:09;;;;;;;17.52;11.68;;;5.20;99.90;;;;;;7312670;32;20104;-59
2022/05/01 04:19:11;;;;;;;18.25;11.85;;;5.20;99.90;;;;;;7319275;32;20105;-59
2022/05/01 04:23:13;;;;;;;16.92;12.88;;;5.30;99.90;;;;;;7315677;32;20130;-59
2022/05/01 04:27:15;;;;;;;16.40;12.02;;;5.30;99.90;;;;;;7319662;32;20143;-60
2022/05/01 04:31:16;;;;;;;14.57;11.07;;;5.50;99.90;;;;;;7319709;32;20114;-58
2022/05/01 04:35:32;;;;;;;14.73;10.73;;;5.50;99.90;;;;;;7315755;32;20199;-59
2022/05/01 04:39:33;;;;;;;17.80;11.45;;;5.50;99.90;;;;;;7315393;32;20238;-59
2022/05/01 04:43:36;;;;;;;14.95;11.38;;;5.60;99.90;;;;;;7311613;32;20524;-59
2022/05/01 04:47:38;;;;;;;17.50;11.85;;;5.60;99.90;;;;;;7307669;32;20104;-59
2022/05/01 04:51:40;;;;;;;18.75;11.55;;;5.70;99.90;;;;;;7316209;32;20710;-59
2022/05/01 04:55:43;;;;;;;20.50;12.88;;;6.00;99.90;;;;;;7317317;32;20295;-59
2022/05/01 04:59:45;;;;;;;16.33;12.05;;;6.20;99.90;;;;;;7319906;32;20555;-59
2022/05/01 05:03:47;;;;;;;12.90;10.88;;;6.50;99.90;;;;;;7315953;32;20169;-59
2022/05/01 05:07:49;;;;;;;14.10;10.63;;;6.70;99.90;;;;;;7320191;32;20443;-59
2022/05/01 05:11:50;;;;;;;15.60;11.75;;;6.70;99.90;;;;;;7320158;32;20103;-61
2022/05/01 05:15:59;;;;;;;15.65;11.45;;;6.90;99.90;;;;;;7312110;32;20134;-61
2022/05/01 05:20:02;;;;;;;13.45;11.02;;;6.90;99.90;;;;;;7318263;32;20118;-62
2022/05/01 05:24:05;;;;;;;18.00;12.13;;;7.10;99.90;;;;;;7311163;32;20142;-61
2022/05/01 05:28:08;;;;;;;13.25;11.65;;;7.10;99.90;;;;;;7311723;32;20467;-62
2022/05/01 05:32:09;;;;;;;13.62;11.50;;;7.20;99.90;;;;;;7311713;32;20196;-63
2022/05/01 05:36:11;;;;;;;16.83;12.88;;;7.20;99.90;;;;;;7307563;32;20187;-61
2022/05/01 05:40:13;;;;;;;16.55;12.77;;;7.40;99.90;;;;;;7313568;32;20256;-61
2022/05/01 05:44:14;;;;;;;16.08;12.25;;;7.60;99.90;;;;;;7316663;32;20096;-62
2022/05/01 05:48:16;;;;;;;15.52;11.98;;;7.90;99.90;;;;;;7313581;32;20104;-61
2022/05/01 05:52:18;;;;;;;18.58;13.13;;;8.00;99.90;;;;;;7311831;32;20222;-61
2022/05/01 05:56:20;;;;;;;16.17;12.82;;;8.10;99.90;;;;;;7310226;32;20645;-62
2022/05/01 06:00:22;;;;;;;16.52;12.63;;;8.40;99.90;;;;;;7311068;32;20214;-63
2022/05/01 06:04:23;;;;;;;18.58;12.60;;;8.50;99.90;;;;;;7310765;32;20672;-65
2022/05/01 06:08:25;;;;;;;15.60;11.30;;;8.80;99.90;;;;;;7311183;32;20575;-64
2022/05/01 06:12:28;;;;;;;14.35;11.40;;;9.00;99.90;;;;;;7312446;32;20103;-64
2022/05/01 06:16:31;;;;;;;13.10;11.10;;;9.20;99.90;;;;;;7318329;32;20251;-64
2022/05/01 06:20:33;;;;;;;15.70;10.90;;;9.50;99.90;;;;;;7314784;32;20588;-65
2022/05/01 06:24:35;;;;;;;15.32;10.48;;;9.80;99.90;;;;;;7315576;32;20122;-65
2022/05/01 06:28:36;;;;;;;15.15;10.05;;;10.00;99.90;;;;;;7316834;32;20123;-65
2022/05/01 06:32:42;;;;;;;12.07;10.05;;;10.30;99.90;;;;;;7316886;32;20099;-65
2022/05/01 06:36:43;;;;;;;14.40;9.43;;;10.40;99.90;;;;;;7314353;32;20159;-65
2022/05/01 06:40:46;;;;;;;15.95;9.93;;;10.60;99.90;;;;;;7303259;32;20135;-64
2022/05/01 06:44:48;;;;;;;13.57;8.85;;;10.70;99.90;;;;;;7310606;32;20154;-64
2022/05/01 06:48:49;;;;;;;11.23;9.35;;;10.90;99.90;;;;;;7315043;32;20301;-64
2022/05/01 06:52:51;;;;;;;13.62;9.45;;;11.00;99.90;;;;;;7320950;32;20254;-63
2022/05/01 06:56:53;;;;;;;11.60;9.10;;;11.10;99.90;;;;;;7314749;32;20104;-64
2022/05/01 07:00:55;;;;;;;13.32;8.98;;;11.60;99.90;;;;;;7314939;32;20542;-64
2022/05/01 07:04:57;;;;;;;11.60;8.60;;;12.10;99.90;;;;;;7319455;32;20757;-64
2022/05/01 07:08:58;;;;;;;12.25;8.02;;;12.50;99.90;;;;;;7312787;32;20198;-63
2022/05/01 07:13:00;;;;;;;11.00;7.87;;;12.90;99.90;;;;;;7307656;32;20214;-64
2022/05/01 07:17:01;;;;;;;13.00;8.93;;;13.30;99.90;;;;;;7310232;32;20112;-64
2022/05/01 07:21:03;;;;;;;10.55;7.93;;;12.80;99.90;;;;;;7311992;32;20484;-60
2022/05/01 07:25:05;;;;;;;11.15;8.70;;;12.60;99.90;;;;;;7320024;32;20096;-60
2022/05/01 07:29:08;;;;;;;9.57;8.48;;;12.70;99.90;;;;;;7303630;32;20585;-60
2022/05/01 07:33:10;;;;;;;9.77;7.85;;;13.30;99.90;;;;;;7312649;32;20166;-63
2022/05/01 07:37:13;;;;;;;11.18;7.85;;;13.00;99.90;;;;;;7318415;32;20108;-64
2022/05/01 07:41:19;;;;;;;11.07;7.80;;;13.00;99.90;;;;;;7315106;32;20421;-64
2022/05/01 07:45:21;;;;;;;10.93;7.32;;;12.30;99.90;;;;;;7317084;32;20194;-64
2022/05/01 07:49:29;;;;;;;11.63;8.40;;;12.20;99.90;;;;;;7317748;32;20248;-63
2022/05/01 07:53:33;;;;;;;10.43;7.35;;;12.20;99.90;;;;;;7319618;32;20126;-63
2022/05/01 07:57:35;;;;;;;9.02;6.68;;;11.90;99.90;;;;;;7318584;32;20115;-65
2022/05/01 08:01:36;;;;;;;10.43;7.00;;;12.20;99.90;;;;;;7315009;32;20107;-62
2022/05/01 08:05:38;;;;;;;9.30;7.20;;;12.20;99.90;;;;;;7316824;32;20115;-63
2022/05/01 08:09:40;;;;;;;8.68;7.03;;;11.80;99.90;;;;;;7311521;32;20244;-62
2022/05/01 08:13:41;;;;;;;8.73;6.68;;;11.90;99.90;;;;;;7317472;32;20151;-60
2022/05/01 08:17:47;;;;;;;13.52;7.53;;;12.20;99.90;;;;;;7313244;32;20137;-60
2022/05/01 08:21:49;;;;;;;10.32;6.55;;;12.30;99.90;;;;;;7318176;32;20122;-62
2022/05/01 08:25:50;;;;;;;9.18;7.05;;;12.40;99.90;;;;;;7319042;32;20901;-61
2022/05/01 08:29:52;;;;;;;10.45;7.70;;;12.80;99.90;;;;;;7316035;32;20489;-60
2022/05/01 08:33:57;;;;;;;9.80;6.78;;;13.00;99.90;;;;;;7313319;32;20521;-65
2022/05/01 08:37:58;;;;;;;12.32;9.15;;;13.00;99.90;;;;;;7314901;32;20097;-63
2022/05/01 08:42:03;;;;;;;10.80;7.03;;;13.10;99.90;;;;;;7315743;32;20332;-63
2022/05/01 08:46:35;;;;;;;11.77;7.45;;;12.80;99.90;;;;;;7313925;32;20235;-64
2022/05/01 08:50:38;;;;;;;9.43;7.53;;;13.30;99.90;;;;;;7308462;32;20214;-67
2022/05/01 08:54:41;;;;;;;11.05;7.07;;;13.40;99.90;;;;;;7311246;32;20202;-68
2022/05/01 08:58:43;;;;;;;9.40;7.55;;;13.50;99.90;;;;;;7313673;32;20107;-64
2022/05/01 09:02:45;;;;;;;10.10;8.15;;;14.00;99.90;;;;;;7316629;32;20108;-64
2022/05/01 09:06:47;;;;;;;10.38;8.10;;;14.10;99.90;;;;;;7314045;32;20104;-63
2022/05/01 09:10:49;;;;;;;10.23;6.20;;;14.10;99.90;;;;;;7319485;32;20112;-64
2022/05/01 09:14:51;;;;;;;8.20;5.28;;;14.60;99.90;;;;;;7323489;32;20194;-63
2022/05/01 09:18:52;;;;;;;10.13;6.35;;;14.30;99.90;;;;;;7304153;32;20133;-63
2022/05/01 09:22:55;;;;;;;7.30;5.62;;;14.20;99.90;;;;;;7320797;32;20095;-63
2022/05/01 09:26:59;;;;;;;6.45;4.68;;;14.40;99.90;;;;;;7315835;32;20122;-62
2022/05/01 09:31:00;;;;;;;6.75;5.15;;;14.50;99.90;;;;;;7309404;32;20240;-64
2022/05/01 09:35:03;;;;;;;9.00;5.97;;;14.10;97.40;;;;;;7320014;32;20324;-63
2022/05/01 09:39:05;;;;;;;6.93;5.65;;;14.10;95.50;;;;;;7306452;32;20140;-63
2022/05/01 09:43:07;;;;;;;8.23;6.18;;;14.00;95.20;;;;;;7319338;32;20227;-63
2022/05/01 09:47:09;;;;;;;9.52;5.45;;;13.90;98.10;;;;;;7318766;32;20112;-64
2022/05/01 09:51:17;;;;;;;8.10;5.75;;;14.00;96.20;;;;;;7319656;32;20186;-62
2022/05/01 09:55:19;;;;;;;7.75;5.57;;;14.10;93.80;;;;;;7311126;32;20104;-64
2022/05/01 09:59:22;;;;;;;7.55;5.55;;;14.00;95.40;;;;;;7317739;32;20607;-65
2022/05/01 10:03:29;;;;;;;9.57;6.53;;;14.20;99.90;;;;;;7293465;32;20119;-64
2022/05/01 10:07:37;;;;;;;9.13;5.60;;;14.50;98.60;;;;;;7317448;32;20182;-63
2022/05/01 10:11:39;;;;;;;11.02;5.15;;;15.00;99.90;;;;;;7319357;32;20099;-63
2022/05/01 10:15:41;;;;;;;8.45;5.18;;;15.70;99.90;;;;;;7315724;32;20206;-64
2022/05/01 10:19:43;;;;;;;7.62;5.40;;;15.50;93.40;;;;;;7320082;32;20169;-65
2022/05/01 10:23:46;;;;;;;8.63;6.20;;;15.40;97.60;;;;;;7299114;32;20218;-64
2022/05/01 10:28:08;;;;;;;13.13;6.12;;;15.50;98.90;;;;;;7316389;32;20186;-66
2022/05/01 10:32:33;;;;;;;7.32;6.07;;;15.60;99.90;;;;;;7315387;32;20597;-68
2022/05/01 10:37:14;;;;;;;10.27;7.90;;;15.30;99.90;;;;;;7312367;32;20145;-67
2022/05/01 10:41:17;;;;;;;9.32;7.62;;;15.20;98.80;;;;;;7316414;32;20532;-65
2022/05/01 10:45:22;;;;;;;7.90;6.75;;;14.60;98.50;;;;;;7319614;32;20653;-68
2022/05/01 10:49:36;;;;;;;10.85;7.55;;;14.20;99.90;;;;;;7320173;32;20120;-64
2022/05/01 10:53:38;;;;;;;12.43;7.50;;;14.20;99.90;;;;;;7315961;32;20957;-64
2022/05/01 10:57:39;;;;;;;10.85;7.45;;;14.20;99.90;;;;;;7316916;32;20146;-64
2022/05/01 11:01:54;;;;;;;9.57;7.25;;;14.60;99.90;;;;;;7320638;32;20958;-64
2022/05/01 11:06:02;;;;;;;13.82;8.35;;;14.90;99.90;;;;;;7319020;32;20112;-64
2022/05/01 11:10:09;;;;;;;8.95;7.22;;;14.70;99.90;;;;;;7312203;32;20115;-65
2022/05/01 11:14:13;;;;;;;10.82;7.93;;;14.90;99.90;;;;;;7321625;32;20621;-65
2022/05/01 11:18:16;;;;;;;8.75;7.25;;;14.80;99.90;;;;;;7317052;32;20540;-65
2022/05/01 11:22:27;;;;;;;14.27;9.18;;;14.50;99.90;;;;;;7322541;32;20610;-64
2022/05/01 11:26:29;;;;;;;11.95;8.73;;;14.30;99.90;;;;;;7317755;32;20108;-65
2022/05/01 11:30:31;;;;;;;14.20;9.57;;;14.50;99.90;;;;;;7313581;32;20275;-65
2022/05/01 11:34:36;;;;;;;11.15;8.63;;;14.70;99.90;;;;;;7319339;32;20440;-64
2022/05/01 11:38:38;;;;;;;12.40;8.63;;;14.80;99.90;;;;;;7316895;32;20637;-59
2022/05/01 11:42:40;;;;;;;13.60;8.50;;;15.00;99.90;;;;;;7316947;32;20100;-64
2022/05/01 11:46:42;;;;;;;10.80;8.93;;;15.30;99.90;;;;;;7318571;32;20685;-64
2022/05/01 11:50:48;;;;;;;12.48;9.70;;;15.30;99.90;;;;;;7318232;32;20841;-65
2022/05/01 11:54:52;;;;;;;11.93;9.27;;;15.10;99.90;;;;;;7318703;32;20127;-65
2022/05/01 12:03:29;;;;;;;11.32;9.27;;;15.30;99.90;;;;;;7319789;32;20636;-61
2022/05/01 12:07:31;;;;;;;12.88;9.95;;;15.70;99.90;;;;;;7317069;32;20367;-61
2022/05/01 12:11:33;;;;;;;11.98;9.57;;;15.60;99.90;;;;;;7320074;32;20339;-61
2022/05/01 12:15:35;;;;;;;11.65;9.20;;;15.30;99.90;;;;;;7316888;32;20197;-65
2022/05/01 12:19:39;;;;;;;15.48;10.07;;;15.50;99.90;;;;;;7319333;32;20092;-64
2022/05/01 12:23:47;;;;;;;10.32;9.27;;;15.40;99.90;;;;;;7317965;32;20190;-65
2022/05/01 12:27:49;;;;;;;10.75;9.13;;;15.00;99.90;;;;;;7311394;32;20303;-64
2022/05/01 12:32:06;;;;;;;14.80;10.05;;;15.10;99.90;;;;;;7318409;32;20511;-64
2022/05/01 12:36:08;;;;;;;12.35;9.55;;;15.10;99.90;;;;;;7320242;32;20139;-59
2022/05/01 12:40:12;;;;;;;11.15;8.82;;;15.00;99.90;;;;;;7320487;32;20118;-66
2022/05/01 12:44:14;;;;;;;11.23;10.07;;;15.40;99.90;;;;;;7313009;32;20125;-67
2022/05/01 12:48:18;;;;;;;13.10;9.90;;;15.80;99.90;;;;;;7314655;32;20126;-68
2022/05/01 12:52:33;;;;;;;14.65;10.27;;;15.80;99.90;;;;;;7315620;32;20668;-68
2022/05/01 12:56:35;;;;;;;11.60;9.85;;;15.80;99.60;;;;;;7315239;32;20122;-68
2022/05/01 13:00:43;;;;;;;14.85;10.32;;;15.70;99.90;;;;;;7308564;32;20104;-68
2022/05/01 13:04:57;;;;;;;11.82;9.30;;;15.20;99.90;;;;;;7316982;32;20126;-69
2022/05/01 13:09:02;;;;;;;10.25;9.15;;;15.30;99.90;;;;;;7315124;32;20096;-68
2022/05/01 13:13:05;;;;;;;9.55;8.55;;;15.40;99.90;;;;;;7311417;32;20126;-67
2022/05/01 13:17:14;;;;;;;10.75;9.65;;;15.70;99.90;;;;;;7311019;32;20169;-67
2022/05/01 13:21:16;;;;;;;11.93;10.00;;;15.90;99.90;;;;;;7309107;32;20444;-67
2022/05/01 13:25:17;;;;;;;11.60;9.02;;;16.10;99.90;;;;;;7308082;32;20100;-65
2022/05/01 13:29:19;;;;;;;11.00;9.80;;;16.40;98.40;;;;;;7314685;32;20211;-64
2022/05/01 13:33:22;;;;;;;13.68;9.75;;;16.40;99.20;;;;;;7314588;32;20676;-65
2022/05/01 13:37:24;;;;;;;11.32;10.13;;;16.20;99.90;;;;;;7310976;32;20769;-66
2022/05/01 13:45:47;;;;;;;10.93;9.82;;;15.30;99.90;;;;;;7308422;32;20142;-65
2022/05/01 13:49:50;;;;;;;10.80;9.55;;;15.40;99.90;;;;;;7312397;32;20200;-65
2022/05/01 13:53:52;;;;;;;11.77;9.52;;;15.30;99.90;;;;;;7313153;32;20126;-64
2022/05/01 13:57:54;;;;;;;9.48;8.40;;;14.80;99.50;;;;;;7313898;32;20108;-64
2022/05/01 14:01:56;;;;;;;12.68;8.88;;;14.80;99.90;;;;;;7307664;32;20225;-64
2022/05/01 14:05:58;;;;;;;13.05;10.20;;;14.90;99.90;;;;;;7313805;32;21578;-66
2022/05/01 14:10:00;;;;;;;10.60;8.88;;;15.00;99.90;;;;;;7311774;32;20818;-65
2022/05/01 14:14:03;;;;;;;16.08;9.40;;;14.90;99.90;;;;;;7316557;32;20355;-65
2022/05/01 14:18:07;;;;;;;13.20;9.68;;;14.70;99.90;;;;;;7313627;32;20127;-58
2022/05/01 14:22:12;;;;;;;12.07;9.52;;;14.80;99.90;;;;;;7313373;32;20123;-58
2022/05/01 14:26:22;;;;;;;14.13;9.98;;;14.70;99.90;;;;;;7321149;32;20944;-58
2022/05/01 14:30:24;;;;;;;12.70;9.60;;;14.70;99.90;;;;;;7314833;32;20179;-67
2022/05/01 14:34:49;;;;;;;11.45;9.55;;;14.80;99.90;;;;;;7324774;32;20303;-67
2022/05/01 14:39:03;;;;;;;10.90;9.07;;;14.70;99.90;;;;;;7316860;32;20114;-67
2022/05/01 14:43:17;;;;;;;11.70;9.50;;;14.70;99.90;;;;;;7324501;32;20103;-66
2022/05/01 14:47:27;;;;;;;13.50;9.88;;;14.70;99.90;;;;;;7319187;32;20259;-67
2022/05/01 14:51:32;;;;;;;13.27;8.77;;;14.70;99.90;;;;;;7324357;32;20142;-66
2022/05/01 14:55:35;;;;;;;13.90;9.55;;;14.50;99.90;;;;;;7320238;32;20408;-67
2022/05/01 15:08:30;;;;;;;12.45;9.70;;;14.50;99.90;;;;;;7322444;32;20130;-66
2022/05/01 15:12:32;;;;;;;12.02;10.45;;;14.40;99.90;;;;;;7318625;32;20189;-66
2022/05/01 15:16:40;;;;;;;13.20;10.43;;;14.50;99.90;;;;;;7320610;32;20115;-66
2022/05/01 15:20:49;;;;;;;13.02;10.68;;;14.30;99.90;;;;;;7317458;32;20196;-65
2022/05/01 15:25:22;;;;;;;11.52;9.57;;;14.40;99.90;;;;;;7323473;32;20800;-64
2022/05/01 15:29:44;;;;;;;12.70;9.30;;;14.50;99.90;;;;;;7322704;32;20439;-65
2022/05/01 15:33:53;;;;;;;10.02;8.93;;;14.30;99.90;;;;;;7322167;32;20107;-65
2022/05/01 15:37:59;;;;;;;12.02;9.75;;;14.20;99.90;;;;;;7307437;32;20240;-65
2022/05/01 15:42:15;;;;;;;13.05;9.85;;;14.20;99.90;;;;;;7321027;32;20287;-64
2022/05/01 15:46:22;;;;;;;12.80;9.07;;;14.40;99.90;;;;;;7318280;32;21268;-66
2022/05/01 15:54:48;;;;;;;14.57;9.95;;;14.20;99.90;;;;;;7315182;32;20123;-65
2022/05/01 15:58:50;;;;;;;10.77;9.65;;;14.20;99.90;;;;;;7319852;32;20729;-65
2022/05/01 16:02:54;;;;;;;11.38;9.23;;;14.10;99.90;;;;;;7321954;32;20693;-65
2022/05/01 16:07:03;;;;;;;10.95;9.30;;;14.00;99.90;;;;;;7323030;32;20156;-65
2022/05/01 16:11:21;;;;;;;11.32;9.48;;;14.10;99.90;;;;;;7322717;32;20123;-65
2022/05/01 16:15:33;;;;;;;14.77;10.65;;;14.10;99.90;;;;;;7315826;32;20239;-64
2022/05/01 16:19:46;;;;;;;15.98;9.80;;;14.00;99.90;;;;;;7313810;32;20661;-65
2022/05/01 16:24:10;;;;;;;13.62;10.30;;;14.10;99.90;;;;;;7313566;32;20591;-65
2022/05/01 16:28:28;;;;;;;13.00;10.05;;;14.00;99.90;;;;;;7318082;32;20241;-63
2022/05/01 16:32:57;;;;;;;11.10;10.00;;;14.00;99.90;;;;;;7314593;32;20191;-63
2022/05/01 16:37:03;;;;;;;14.25;11.12;;;13.90;99.90;;;;;;7314020;32;20231;-63
2022/05/01 16:41:06;;;;;;;13.00;10.10;;;13.80;99.90;;;;;;7319542;32;20122;-63
2022/05/01 16:45:11;;;;;;;13.90;9.65;;;13.70;99.90;;;;;;7318479;32;20099;-62
2022/05/01 16:49:12;;;;;;;12.93;9.32;;;13.70;99.90;;;;;;7320224;32;20206;-62
2022/05/01 16:53:21;;;;;;;14.02;10.35;;;13.70;99.90;;;;;;7322395;32;20165;-63
2022/05/01 16:57:23;;;;;;;12.63;8.48;;;13.60;99.90;;;;;;7316367;32;20217;-63
2022/05/01 17:01:29;;;;;;;12.18;10.13;;;13.60;99.90;;;;;;7311788;32;20646;-64
2022/05/01 17:05:34;;;;;;;12.25;10.65;;;13.60;99.90;;;;;;7315264;32;20519;-67
2022/05/01 17:09:57;;;;;;;12.50;9.60;;;13.50;99.90;;;;;;7313946;32;20191;-65
2022/05/01 17:14:38;;;;;;;11.57;8.43;;;13.50;99.90;;;;;;7316626;32;20475;-66
2022/05/01 17:18:50;;;;;;;10.60;9.48;;;13.50;99.90;;;;;;7314020;32;21067;-67
2022/05/01 17:22:59;;;;;;;12.93;9.70;;;13.60;99.90;;;;;;7317762;32;20375;-65
2022/05/01 17:27:06;;;;;;;13.20;10.00;;;13.50;99.90;;;;;;7313562;32;20647;-66
2022/05/01 17:31:13;;;;;;;10.88;9.30;;;13.50;99.90;;;;;;7312949;32;20226;-69
2022/05/01 17:35:16;;;;;;;11.93;9.00;;;13.50;99.90;;;;;;7315968;32;20099;-68
2022/05/01 17:39:18;;;;;;;10.55;8.52;;;13.50;99.90;;;;;;7311054;32;20711;-64
2022/05/01 17:43:21;;;;;;;13.05;9.98;;;13.50;99.90;;;;;;7316433;32;20874;-64
2022/05/01 17:47:25;;;;;;;11.45;9.32;;;13.50;99.90;;;;;;7314381;32;20198;-64
2022/05/01 17:51:27;;;;;;;13.30;9.55;;;13.50;99.90;;;;;;7313441;32;20587;-63
2022/05/01 17:55:30;;;;;;;12.70;10.05;;;13.40;99.90;;;;;;7316441;32;20210;-65
2022/05/01 17:59:32;;;;;;;10.65;8.57;;;13.30;99.90;;;;;;7309806;32;20437;-63
2022/05/01 18:03:47;;;;;;;9.98;8.40;;;13.30;99.90;;;;;;7314109;32;20126;-64
2022/05/01 18:12:58;;;;;;;19.65;14.30;;;13.20;99.90;;;;;;7312445;32;20543;-66
2022/05/01 18:17:21;;;;;;;9.38;6.93;;;13.20;99.90;;;;;;7318118;32;20639;-66
2022/05/01 18:21:34;;;;;;;7.15;6.25;;;13.10;99.90;;;;;;7313688;32;20546;-64
2022/05/01 18:26:00;;;;;;;7.12;6.22;;;13.00;99.90;;;;;;7310407;32;20316;-65
2022/05/01 18:30:13;;;;;;;8.13;6.05;;;12.90;99.90;;;;;;7315990;32;20751;-64
2022/05/01 18:34:42;;;;;;;7.72;5.62;;;12.80;99.90;;;;;;7307523;32;20115;-65
2022/05/01 18:38:48;;;;;;;9.60;5.60;;;12.70;99.90;;;;;;7311242;32;20742;-64
2022/05/01 18:42:54;;;;;;;6.57;5.75;;;12.70;99.90;;;;;;7316786;32;20107;-66
2022/05/01 18:46:57;;;;;;;6.95;5.05;;;12.60;99.90;;;;;;7315598;32;20215;-66
2022/05/01 18:51:01;;;;;;;8.63;5.47;;;12.40;99.90;;;;;;7317027;32;20100;-68
2022/05/01 18:55:03;;;;;;;11.57;7.25;;;12.30;99.90;;;;;;7316275;32;20220;-68
2022/05/01 18:59:08;;;;;;;8.40;5.43;;;12.10;99.90;;;;;;7310901;32;20348;-67
2022/05/01 19:03:10;;;;;;;6.53;5.72;;;12.00;99.90;;;;;;7314671;32;20112;-66
2022/05/01 19:07:20;;;;;;;7.93;5.12;;;11.80;99.90;;;;;;7316859;32;20107;-62
2022/05/01 19:11:30;;;;;;;7.05;4.93;;;11.70;99.90;;;;;;7315962;32;20564;-62
2022/05/01 19:15:48;;;;;;;7.57;5.05;;;11.60;99.90;;;;;;7312179;32;20088;-61
2022/05/01 19:19:53;;;;;;;9.13;5.78;;;11.40;99.90;;;;;;7317953;32;20536;-60
2022/05/01 19:28:23;;;;;;;10.65;6.95;;;11.20;99.90;;;;;;7320187;32;20244;-62
2022/05/01 19:33:02;;;;;;;13.15;6.65;;;11.00;99.90;;;;;;7318044;32;20327;-62
2022/05/01 19:37:08;;;;;;;10.80;6.72;;;11.00;99.90;;;;;;7321630;32;20215;-63
2022/05/01 19:41:36;;;;;;;7.35;6.43;;;10.90;99.90;;;;;;7321201;32;20127;-62
2022/05/01 19:46:01;;;;;;;10.98;6.30;;;10.70;99.90;;;;;;7314342;32;20252;-61
2022/05/01 19:54:42;;;;;;;16.65;11.15;;;10.50;99.90;;;;;;7317785;32;20107;-61
2022/05/01 19:58:48;;;;;;;15.27;10.45;;;10.40;99.90;;;;;;7314774;32;20229;-64
2022/05/01 20:02:56;;;;;;;14.50;8.77;;;10.30;99.90;;;;;;7319699;32;20111;-63
2022/05/01 20:06:59;;;;;;;10.65;8.05;;;10.20;99.90;;;;;;7317970;32;20868;-63
2022/05/01 20:11:02;;;;;;;12.07;7.70;;;10.10;99.90;;;;;;7317738;32;20479;-62
2022/05/01 20:15:06;;;;;;;10.32;6.95;;;10.00;99.90;;;;;;7321013;32;20217;-63
2022/05/01 20:19:42;;;;;;;10.45;6.87;;;9.90;99.90;;;;;;7319249;32;20609;-62
2022/05/01 20:24:02;;;;;;;12.60;6.65;;;9.80;99.90;;;;;;7317475;32;20216;-62
2022/05/01 20:28:40;;;;;;;8.73;6.62;;;9.80;99.90;;;;;;7320370;32;20202;-63
2022/05/01 20:33:01;;;;;;;11.63;6.93;;;9.70;99.90;;;;;;7314829;32;20100;-60
2022/05/01 20:37:45;;;;;;;9.93;6.93;;;9.60;99.90;;;;;;7320539;32;20550;-63
2022/05/01 20:42:00;;;;;;;9.48;7.30;;;9.50;99.90;;;;;;7302362;32;20107;-64
2022/05/01 20:46:19;;;;;;;9.95;7.32;;;9.40;99.90;;;;;;7318204;32;20096;-63
2022/05/01 20:51:01;;;;;;;9.13;6.97;;;9.40;99.90;;;;;;7311550;32;20100;-63
2022/05/01 20:55:04;;;;;;;11.35;6.72;;;9.20;99.90;;;;;;7317199;32;20169;-64
2022/05/01 20:59:12;;;;;;;10.55;6.68;;;9.20;99.90;;;;;;7300104;32;20179;-62
2022/05/01 21:03:14;;;;;;;;;;;9.10;99.90;;;;;;7318912;32;20194;-61
2022/05/01 21:07:16;;;;;;;10.63;7.40;;;9.00;99.90;;;;;;7312815;32;20030;-63
2022/05/01 21:11:21;;;;;;;10.27;6.70;;;8.90;99.90;;;;;;7314648;32;20867;-64
2022/05/01 21:15:23;;;;;;;8.80;6.50;;;8.90;99.90;;;;;;7322526;32;20108;-64
2022/05/01 21:19:25;;;;;;;10.60;6.68;;;8.80;99.90;;;;;;7326292;32;20642;-64
2022/05/01 21:23:26;;;;;;;10.77;7.05;;;8.70;99.90;;;;;;7318112;32;20099;-63
2022/05/01 21:27:30;;;;;;;9.50;7.03;;;8.70;99.90;;;;;;7300348;32;20473;-65
2022/05/01 21:35:52;;;;;;;11.95;6.97;;;8.50;99.90;;;;;;7312957;32;20159;-63
2022/05/01 21:39:53;;;;;;;10.93;6.72;;;8.50;99.90;;;;;;7308358;32;20218;-60
2022/05/01 21:43:55;;;;;;;9.98;7.43;;;8.50;99.90;;;;;;7311360;32;20904;-60
2022/05/01 21:47:57;;;;;;;9.18;7.18;;;8.50;99.90;;;;;;7313493;32;20118;-59
2022/05/01 21:51:58;;;;;;;9.13;7.35;;;8.50;99.90;;;;;;7316402;32;20219;-60
2022/05/01 21:56:01;;;;;;;10.02;7.95;;;8.40;99.90;;;;;;7314574;32;20669;-60
2022/05/01 22:00:04;;;;;;;13.40;8.10;;;8.40;99.90;;;;;;7319059;32;20133;-60